createdAt,value
2022-08-02T00:01:34.298Z,67144.66
2022-08-02T00:06:39.107Z,67178.19
2022-08-02T00:11:44.232Z,67165.72
2022-08-02T00:16:48.074Z,67172.81
2022-08-02T00:21:52.423Z,67120.97
2022-08-02T00:26:57.682Z,67210.50
2022-08-02T00:32:01.639Z,67236.41
2022-08-02T00:37:05.444Z,67254.81
2022-08-02T00:42:11.642Z,67263.38
2022-08-02T00:47:19.303Z,67192.63
2022-08-02T00:52:24.167Z,67182.47
2022-08-02T00:57:29.342Z,67227.25
2022-08-02T01:02:33.233Z,67183.53
2022-08-02T01:07:37.120Z,67078.75
2022-08-02T01:12:42.765Z,67111.69
2022-08-02T01:17:53.949Z,67140.28
2022-08-02T01:23:10.609Z,67090.66
2022-08-02T01:28:30.099Z,67084.75
2022-08-02T01:33:41.035Z,67075.06
2022-08-02T01:38:49.415Z,67054.66
2022-08-02T01:43:59.085Z,67026.44
2022-08-02T01:49:06.845Z,67090.78
2022-08-02T01:54:16.221Z,67127.84
2022-08-02T01:59:24.108Z,67115.56
2022-08-02T02:04:30.413Z,67118.28
2022-08-02T02:09:47.668Z,67069.06
2022-08-02T02:14:57.298Z,67045.31
2022-08-02T02:20:04.135Z,67072.31
2022-08-02T02:25:11.258Z,67054.97
2022-08-02T02:30:18.241Z,67137.03
2022-08-02T02:35:23.760Z,67064.28
2022-08-02T02:40:29.911Z,67110.72
2022-08-02T02:45:37.351Z,67058.88
2022-08-02T02:50:42.974Z,67123.59
2022-08-02T02:56:02.646Z,67069.66
2022-08-02T03:01:56.150Z,67132.72
2022-08-02T03:06:54.348Z,67091.25
2022-08-02T03:12:01.918Z,67138.72
2022-08-02T03:17:10.315Z,67076.66
2022-08-02T03:22:17.930Z,67136.56
2022-08-02T03:27:25.180Z,67151.63
2022-08-02T03:32:33.757Z,67126.25
2022-08-02T03:37:41.653Z,67009.19
2022-08-02T03:42:50.170Z,67002.72
2022-08-02T03:48:00.404Z,66986.69
2022-08-02T03:53:08.581Z,67085.38
2022-08-02T03:58:28.008Z,67071.88
2022-08-02T04:03:36.863Z,67027.66
2022-08-02T04:08:43.984Z,66973.22
2022-08-02T04:13:51.126Z,67061.03
2022-08-02T04:19:03.558Z,67129.47
2022-08-02T04:24:13.428Z,67115.50
2022-08-02T04:29:27.697Z,67195.94
2022-08-02T04:34:36.679Z,67240.22
2022-08-02T04:39:44.608Z,67258.13
2022-08-02T04:44:52.273Z,67219.69
2022-08-02T04:50:01.058Z,67285.59
2022-08-02T04:55:09.151Z,67249.88
2022-08-02T05:00:22.916Z,67265.09
2022-08-02T05:05:31.695Z,67280.13
2022-08-02T05:10:39.163Z,67343.31
2022-08-02T05:15:46.386Z,67418.56
2022-08-02T05:20:58.139Z,67437.41
2022-08-02T05:26:05.164Z,67527.28
2022-08-02T05:31:13.321Z,67477.97
2022-08-02T05:36:22.258Z,67420.66
2022-08-02T05:41:29.309Z,67413.69
2022-08-02T05:46:36.615Z,67408.81
2022-08-02T05:51:54.838Z,67471.66
2022-08-02T05:57:07.949Z,67511.53
2022-08-02T06:02:30.316Z,67559.19
2022-08-02T06:07:40.227Z,67582.41
2022-08-02T06:12:52.149Z,67663.63
2022-08-02T06:18:00.946Z,67548.41
2022-08-02T06:23:13.701Z,67425.03
2022-08-02T06:28:22.450Z,67485.47
2022-08-02T06:33:29.492Z,67442.94
2022-08-02T06:38:43.905Z,67466.13
2022-08-02T06:44:26.279Z,67575.31
2022-08-02T06:49:52.789Z,67587.28
2022-08-02T06:55:09.107Z,67591.72
2022-08-02T07:00:22.933Z,67633.34
2022-08-02T07:05:40.186Z,67800.13
2022-08-02T07:11:01.016Z,67719.44
2022-08-02T07:16:21.083Z,67657.16
2022-08-02T07:21:57.124Z,67767.63
2022-08-02T07:27:23.678Z,67668.53
2022-08-02T07:32:35.635Z,67583.59
2022-08-02T07:37:58.029Z,67629.00
2022-08-02T07:43:14.152Z,67604.66
2022-08-02T07:48:24.410Z,67628.94
2022-08-02T07:53:50.916Z,67692.97
2022-08-02T07:59:00.411Z,67598.22
2022-08-02T08:04:08.121Z,67741.63
2022-08-02T08:09:15.614Z,67633.34
2022-08-02T08:14:24.009Z,67662.59
2022-08-02T08:19:50.437Z,67625.75
2022-08-02T08:24:58.337Z,67549.44
2022-08-02T08:30:10.861Z,67633.28
2022-08-02T08:35:18.377Z,67556.47
2022-08-02T08:40:28.170Z,67574.81
2022-08-02T08:45:36.630Z,67527.81
2022-08-02T08:50:52.715Z,67595.88
2022-08-02T08:56:00.179Z,67520.81
2022-08-02T09:01:11.676Z,67607.44
2022-08-02T09:06:18.402Z,67602.97
2022-08-02T09:11:28.100Z,67527.75
2022-08-02T09:16:38.639Z,67529.44
2022-08-02T09:21:48.934Z,67572.16
2022-08-02T09:26:56.238Z,67604.66
2022-08-02T09:32:07.067Z,67645.78
2022-08-02T09:37:25.904Z,67670.25
2022-08-02T09:42:32.372Z,67653.91
2022-08-02T09:47:40.344Z,67649.03
2022-08-02T09:52:47.747Z,67586.75
2022-08-02T09:57:55.416Z,67563.03
2022-08-02T10:03:21.939Z,67580.22
2022-08-02T10:08:33.019Z,67573.75
2022-08-02T10:13:40.798Z,67559.19
2022-08-02T10:18:49.487Z,67581.38
2022-08-02T10:24:02.700Z,67564.63
2022-08-02T10:29:11.914Z,67671.78
2022-08-02T10:34:31.626Z,67663.72
2022-08-02T10:39:42.599Z,67583.50
2022-08-02T10:44:49.039Z,67548.91
2022-08-02T10:49:58.879Z,67600.34
2022-08-02T10:55:22.399Z,67588.47
2022-08-02T11:00:31.043Z,67581.84
2022-08-02T11:05:42.697Z,67615.47
2022-08-02T11:10:50.982Z,67594.38
2022-08-02T11:16:01.892Z,67643.59
2022-08-02T11:21:26.991Z,67617.16
2022-08-02T11:26:55.255Z,67757.88
2022-08-02T11:32:03.084Z,67861.38
2022-08-02T11:37:12.135Z,67749.81
2022-08-02T11:42:19.243Z,67686.41
2022-08-02T11:47:26.434Z,67739.50
2022-08-02T11:52:38.121Z,67666.44
2022-08-02T11:58:03.212Z,67619.34
2022-08-02T12:03:14.390Z,67703.81
2022-08-02T12:08:28.630Z,67824.59
2022-08-02T12:13:56.893Z,67837.59
2022-08-02T12:19:23.921Z,67801.31
2022-08-02T12:24:32.477Z,67875.00
2022-08-02T12:29:58.573Z,67826.81
2022-08-02T12:35:26.671Z,67981.34
2022-08-02T12:40:36.142Z,67908.72
2022-08-02T12:45:53.710Z,68130.63
2022-08-02T12:51:00.882Z,68035.03
2022-08-02T12:56:12.839Z,68094.81
2022-08-02T13:01:34.599Z,68082.81
2022-08-02T13:07:13.372Z,68020.97
2022-08-02T13:12:37.267Z,68029.63
2022-08-02T13:17:43.725Z,68220.22
2022-08-02T13:22:52.864Z,68032.88
2022-08-02T13:27:58.849Z,67912.97
2022-08-02T13:33:02.796Z,68045.94
2022-08-02T13:38:06.723Z,68328.41
2022-08-02T13:43:52.826Z,68169.72
2022-08-02T13:48:59.394Z,68210.44
2022-08-02T13:54:03.112Z,68117.06
2022-08-02T13:59:54.898Z,68316.44
2022-08-02T14:04:32.957Z,68361.53
2022-08-02T14:09:36.958Z,68448.56
2022-08-02T14:14:42.621Z,68375.13
2022-08-02T14:19:49.315Z,68332.25
2022-08-02T14:24:53.479Z,68163.78
2022-08-02T14:29:58.855Z,68209.88
2022-08-02T14:35:02.885Z,68344.69
2022-08-02T14:40:27.724Z,68270.75
2022-08-02T14:45:40.128Z,68272.41
2022-08-02T14:50:45.383Z,68050.25
2022-08-02T14:55:49.608Z,68018.75
2022-08-02T15:00:55.087Z,68215.84
2022-08-02T15:05:59.391Z,68214.22
2022-08-02T15:11:03.824Z,68218.59
2022-08-02T15:16:10.450Z,67925.94
2022-08-02T15:21:36.595Z,67774.72
2022-08-02T15:26:39.968Z,67797.00
2022-08-02T15:31:45.413Z,67949.19
2022-08-02T15:36:49.866Z,68132.22
2022-08-02T15:41:54.278Z,67985.06
2022-08-02T15:47:00.413Z,67975.34
2022-08-02T15:52:05.266Z,67921.00
2022-08-02T15:57:09.309Z,67809.94
2022-08-02T16:02:16.149Z,67776.34
2022-08-02T16:07:20.526Z,67850.06
2022-08-02T16:12:32.373Z,67764.41
2022-08-02T16:17:51.554Z,67785.00
2022-08-02T16:22:58.278Z,67714.03
2022-08-02T16:28:07.364Z,67714.50
2022-08-02T16:33:13.309Z,67744.38
2022-08-02T16:38:16.875Z,67749.31
2022-08-02T16:43:20.902Z,67825.56
2022-08-02T16:48:25.907Z,67857.06
2022-08-02T16:53:36.237Z,67845.22
2022-08-02T16:58:41.092Z,67755.22
2022-08-02T17:03:56.317Z,67751.97
2022-08-02T17:09:02.106Z,67758.47
2022-08-02T17:20:37.677Z,67773.03
2022-08-02T17:25:43.330Z,67789.91
2022-08-02T17:30:56.589Z,67712.94
2022-08-02T17:36:01.971Z,67730.81
2022-08-02T17:41:06.460Z,67715.13
2022-08-02T17:46:19.206Z,67739.91
2022-08-02T17:52:15.338Z,67714.03
2022-08-02T17:56:50.956Z,67737.25
2022-08-02T18:01:56.467Z,67674.56
2022-08-02T18:07:09.850Z,67696.72
2022-08-02T18:12:15.580Z,67682.56
2022-08-02T18:17:25.002Z,67657.59
2022-08-02T18:22:34.431Z,67607.25
2022-08-02T18:27:38.979Z,67625.72
2022-08-02T18:33:57.333Z,67623.59
2022-08-02T18:38:11.750Z,67628.47
2022-08-02T18:43:15.772Z,67548.38
2022-08-02T18:48:20.317Z,67552.63
2022-08-02T18:58:52.121Z,67492.03
2022-08-02T19:03:56.283Z,67398.59
2022-08-02T19:09:12.761Z,67450.94
2022-08-02T19:14:24.096Z,67388.16
2022-08-02T19:19:31.892Z,67312.53
2022-08-02T19:24:38.593Z,67346.59
2022-08-02T19:29:53.415Z,67330.41
2022-08-02T19:35:00.263Z,67287.13
2022-08-02T19:40:07.948Z,67329.91
2022-08-02T19:45:14.061Z,67254.19
2022-08-02T19:50:19.539Z,67258.53
2022-08-02T19:55:58.305Z,67385.03
2022-08-02T20:01:20.687Z,67434.78
2022-08-02T20:06:34.750Z,67372.25
2022-08-02T20:11:40.624Z,67324.97
2022-08-02T20:16:46.016Z,67420.13
2022-08-02T20:21:55.501Z,67407.22
2022-08-02T20:27:04.600Z,67401.78
2022-08-02T20:32:08.268Z,67287.69
2022-08-02T20:38:01.088Z,67233.75
2022-08-02T20:42:37.547Z,67187.78
2022-08-02T20:47:43.233Z,67178.66
2022-08-02T20:52:53.528Z,67294.16
2022-08-02T20:58:01.086Z,67326.53
2022-08-02T21:03:08.880Z,67212.13
2022-08-02T21:08:15.133Z,67277.41
2022-08-02T21:13:24.097Z,67316.44
2022-08-02T21:18:40.194Z,67322.31
2022-08-02T21:23:48.940Z,67339.63
2022-08-02T21:29:03.047Z,67359.56
2022-08-02T21:34:22.000Z,67314.22
2022-08-02T21:39:32.320Z,67351.47
2022-08-02T21:44:37.405Z,67297.34
2022-08-02T21:50:13.238Z,67326.53
2022-08-02T21:55:09.114Z,67336.31
2022-08-02T22:00:22.543Z,67350.50
2022-08-02T22:05:37.317Z,67403.41
2022-08-02T22:10:55.187Z,67282.97
2022-08-02T22:16:02.505Z,67272.63
2022-08-02T22:21:14.210Z,67287.75
2022-08-02T22:26:19.199Z,67307.66
2022-08-02T22:31:40.874Z,67274.19
2022-08-02T22:36:46.032Z,67304.97
2022-08-02T22:42:05.949Z,67334.66
2022-08-02T22:47:14.717Z,67335.31
2022-08-02T22:52:36.054Z,67308.09
2022-08-02T22:57:56.792Z,67294.84
2022-08-02T22:58:57.558Z,67578.53
2022-08-02T23:03:02.178Z,67195.41
2022-08-02T23:08:07.052Z,67251.50
2022-08-02T23:13:10.864Z,67205.13
2022-08-02T23:18:33.267Z,67267.19
2022-08-02T23:23:37.304Z,67249.00
2022-08-02T23:28:41.172Z,67267.25
2022-08-02T23:34:03.541Z,67200.72
2022-08-02T23:39:08.616Z,67218.00
2022-08-02T23:44:14.247Z,67209.97
2022-08-02T23:49:20.741Z,67220.84
2022-08-02T23:54:25.371Z,67235.91
2022-08-02T23:59:28.996Z,67124.63
